Capaldo, Kansas
Current Conditions -  °F | °C
As of 4:15 PM on Saturday 20 Dec 2014 (Local Time) from KPTS Reporting Station
Broken Clouds Broken Clouds  
Wind Chill: 39°   Ceiling: 2000
Heat Index: 43°   Visibility: 10mi
Dew Point: 37°   Wind: 7mph
Humidity: 78%   Direction: 210°SSW
Pressure: 30.16"   Gusts: NA
Location:  37.4268°N, 94.7004°W
Report Text: KPTS 202215Z AUTO 21006KT 10SM BKN020 06/03 A3016 RMK AO2 T00630028
Loading
Personal Weather Stations






























Interactive Weather Map New forecast layout! Learn more

10-Day Weather Forecast

Advertisements
Track Severe Weather on mobile